Forside
METAR-TAF:

METAR-TAF

Lufthavne :

Khartoum, Sudan

Breddekreds: 15-36N, længdekreds: 032-33E, højde: 382 m

Aktuelle vejr

Denne rapport blev lavet for 10 minutter siden, kl. 12:00 UTC
Vind 11 kt fra nord
Temperatur 34°C
Fugtighed 12%
Tryk 1012 hPa
Sigt 10 km eller mere
ingen skyer under 1500m og ingen cumulonimbus

METAR: HSSS 221200Z 35011KT CAVOK 34/01 Q1012 NOSIG

Tid: 15:10 (12:10 UTC)

Vejrudsigter

Denne rapport blev lavet for 1 time og 10 minutter siden, kl. 11:00 UTC
Foreløbig gælder fra 22 på 12 UTC til 23 på 18 UTC
Vind 8 kt fra nordnordøst med vindstød på up til 18 kt
Sigt 10 km eller mere
ingen skyer under 1500m og ingen cumulonimbus

TAF: HSSS 221100Z 2212/2318 03008G18KT CAVOK

Vejrobservationer og prognoser fra mere end 4000 lufthavne (METAR og TAF).

De gule og røde prikker repræsenterer de meteorologiske stationer.

Flyt musen over at se navnet på stationen.

Så klik over at se vejr observationer og prognoser.

At skifte det kort: Klik på de grønne knapper med et sort kors for at zoome ind; på den grønne knap med en bindestreg for at zoome ud; eller på de grønne pile for tilstødende kort.


METAR-TAF: